Terminal Aerodrome Forecast
Issued by NWS

Home | Current Version | Previous Version | Text Only | Print | Product List | Glossary On
Versions: 1 2 3 4 5 6 7 8 9 10 11 12 13
000
FTUS45 KTFX 281100
TAFHVR
TAF
KHVR 281130Z 2812/2912 24010KT P6SM BKN090
     FM281700 26025G35KT P6SM BKN060
      TEMPO 2900/2904 -SHRA
     FM290500 28010KT P6SM BKN080=

USA.gov is the U.S. government's official web portal to all federal, state and local government web resources and services.